Time;durP1;ratioP1;P1;durP2;ratioP2;P2;SDS_P1;SDS_P2;PMS_P1;PMS_P2;Temp;Humidity;BMP_temperature;BMP_pressure;BME280_temperature;BME280_humidity;BME280_pressure;Samples;Min_cycle;Max_cycle;Signal;HPM_P1;HPM_P2
2022/12/24 00:02:12;;;;;;;;;;;5.90;99.90;;;;;;5090279;27;19923;-76
2022/12/24 00:04:38;;;;;;;;;;;5.90;99.90;;;;;;5096070;27;20664;-76
2022/12/24 00:07:03;;;;;;;;;;;5.90;99.90;;;;;;5087999;27;20416;-76
2022/12/24 00:09:29;;;;;;;;;;;5.90;99.90;;;;;;5092076;27;19927;-76
2022/12/24 00:11:55;;;;;;;;;;;5.90;99.90;;;;;;5108542;27;19965;-76
2022/12/24 00:14:21;;;;;;;;;;;5.90;99.90;;;;;;5082110;27;20016;-76
2022/12/24 00:16:46;;;;;;;;;;;5.90;99.90;;;;;;5073193;27;19985;-76
2022/12/24 00:19:12;;;;;;;;;;;5.90;99.90;;;;;;5075041;27;19970;-77
2022/12/24 00:21:38;;;;;;;;;;;5.90;99.90;;;;;;5075290;27;19935;-76
2022/12/24 00:24:04;;;;;;;;;;;5.90;99.90;;;;;;5111987;27;20000;-76
2022/12/24 00:26:31;;;;;;;;;;;5.90;99.90;;;;;;5091325;27;20019;-76
2022/12/24 00:28:56;;;;;;;;;;;5.90;99.90;;;;;;5107734;27;19920;-77
2022/12/24 00:31:22;;;;;;;;;;;5.90;99.90;;;;;;5093084;27;19923;-77
2022/12/24 00:33:48;;;;;;;;;;;5.90;99.90;;;;;;5108241;27;19923;-76
2022/12/24 00:36:14;;;;;;;;;;;5.90;99.90;;;;;;5074135;27;19920;-76
2022/12/24 00:38:39;;;;;;;;;;;5.90;99.90;;;;;;5074135;27;20792;-76
2022/12/24 00:41:22;;;;;;;;;;;5.90;99.90;;;;;;5074889;27;19972;-77
2022/12/24 00:43:58;;;;;;;;;;;6.00;99.90;;;;;;5108767;27;19923;-77
2022/12/24 00:46:25;;;;;;;;;;;6.00;99.90;;;;;;5092059;27;20348;-77
2022/12/24 00:48:50;;;;;;;;;;;5.90;99.90;;;;;;5090655;27;19973;-76
2022/12/24 00:51:16;;;;;;;;;;;5.90;99.90;;;;;;5101598;28;20375;-76
2022/12/24 00:53:42;;;;;;;;;;;5.90;99.90;;;;;;5086697;27;20490;-76
2022/12/24 00:56:08;;;;;;;;;;;5.90;99.90;;;;;;5091965;27;19920;-76
2022/12/24 00:58:33;;;;;;;;;;;6.00;99.90;;;;;;5084110;27;19926;-76
2022/12/24 01:00:59;;;;;;;;;;;5.90;99.90;;;;;;5087909;28;19984;-76
2022/12/24 01:03:34;;;;;;;;;;;5.90;99.90;;;;;;5106079;27;20431;-76
2022/12/24 01:06:00;;;;;;;;;;;6.00;99.90;;;;;;5084395;27;19924;-76
2022/12/24 01:08:26;;;;;;;;;;;6.00;99.90;;;;;;5097214;27;19935;-76
2022/12/24 01:10:51;;;;;;;;;;;6.00;99.90;;;;;;5091802;28;20375;-76
2022/12/24 01:13:17;;;;;;;;;;;6.00;99.90;;;;;;5073965;28;19924;-76
2022/12/24 01:15:42;;;;;;;;;;;6.00;99.90;;;;;;5096848;27;20005;-76
2022/12/24 01:18:08;;;;;;;;;;;6.00;99.90;;;;;;5082549;28;20699;-76
2022/12/24 01:20:33;;;;;;;;;;;6.00;99.90;;;;;;5074422;28;20011;-76
2022/12/24 01:22:59;;;;;;;;;;;6.00;99.90;;;;;;5086360;28;19942;-76
2022/12/24 01:25:25;;;;;;;;;;;6.00;99.90;;;;;;5088755;28;20034;-76
2022/12/24 01:27:50;;;;;;;;;;;6.00;99.90;;;;;;5089938;28;19920;-76
2022/12/24 01:30:16;;;;;;;;;;;6.00;99.90;;;;;;5066121;28;19923;-76
2022/12/24 01:32:41;;;;;;;;;;;6.00;99.90;;;;;;5090628;28;19919;-76
2022/12/24 01:35:08;;;;;;;;;;;6.00;99.90;;;;;;5091008;28;20345;-76
2022/12/24 01:37:34;;;;;;;;;;;6.00;99.90;;;;;;5107029;27;19923;-76
2022/12/24 01:45:44;;;;;;;;;;;6.10;99.90;;;;;;5108529;28;19974;-76
2022/12/24 01:48:13;;;;;;;;;;;6.10;99.90;;;;;;5088487;28;19935;-76
2022/12/24 01:50:38;;;;;;;;;;;6.10;99.90;;;;;;5085933;28;19920;-76
2022/12/24 01:53:05;;;;;;;;;;;6.20;99.90;;;;;;5104700;28;19965;-76
2022/12/24 01:55:30;;;;;;;;;;;6.30;99.90;;;;;;5093218;27;19923;-76
2022/12/24 01:57:58;;;;;;;;;;;6.30;99.90;;;;;;5092021;28;20014;-76
2022/12/24 02:00:24;;;;;;;;;;;6.30;99.90;;;;;;5103876;27;20533;-76
2022/12/24 02:02:51;;;;;;;;;;;6.40;99.90;;;;;;5085272;27;20017;-76
2022/12/24 02:05:29;;;;;;;;;;;6.40;99.90;;;;;;5092556;27;19969;-76
2022/12/24 02:07:55;;;;;;;;;;;6.50;99.90;;;;;;5093391;27;19962;-76
2022/12/24 02:10:21;;;;;;;;;;;6.60;99.90;;;;;;5090149;27;19926;-76
2022/12/24 02:12:48;;;;;;;;;;;6.60;99.90;;;;;;5111705;27;20078;-76
2022/12/24 02:15:15;;;;;;;;;;;6.70;99.90;;;;;;5094902;27;19968;-76
2022/12/24 02:17:46;;;;;;;;;;;6.70;99.90;;;;;;5099827;27;19920;-76
2022/12/24 02:20:18;;;;;;;;;;;6.70;99.90;;;;;;5088664;27;20068;-76
2022/12/24 02:23:05;;;;;;;;;;;6.80;99.90;;;;;;5113184;27;19927;-76
2022/12/24 02:25:57;;;;;;;;;;;6.80;99.90;;;;;;5101274;27;20019;-76
2022/12/24 02:29:01;;;;;;;;;;;6.80;99.90;;;;;;5101958;27;19920;-76
2022/12/24 02:31:42;;;;;;;;;;;6.90;99.90;;;;;;5011230;28;19972;-76
2022/12/24 02:34:12;;;;;;;;;;;6.90;99.90;;;;;;4992739;28;19925;-76
2022/12/24 02:36:41;;;;;;;;;;;7.00;99.90;;;;;;5065027;27;19992;-76
2022/12/24 02:39:14;;;;;;;;;;;7.00;99.90;;;;;;5104152;27;19923;-76
2022/12/24 02:44:32;;;;;;;;;;;7.10;99.90;;;;;;5110475;27;20433;-76
2022/12/24 02:46:59;;;;;;;;;;;7.20;99.90;;;;;;5109952;27;19945;-76
2022/12/24 02:49:24;;;;;;;;;;;7.20;99.90;;;;;;5104943;27;19919;-76
2022/12/24 02:51:50;;;;;;;;;;;7.20;99.90;;;;;;5110898;27;20447;-76
2022/12/24 02:54:16;;;;;;;;;;;7.30;99.90;;;;;;5102354;27;20425;-76
2022/12/24 02:56:52;;;;;;;;;;;7.30;99.90;;;;;;5110005;27;19942;-76
2022/12/24 02:59:36;;;;;;;;;;;7.30;99.90;;;;;;5090556;27;19927;-76
2022/12/24 03:02:18;;;;;;;;;;;7.30;99.90;;;;;;5109357;27;19923;-76
2022/12/24 03:04:47;;;;;;;;;;;7.30;99.90;;;;;;5108825;27;19965;-76
2022/12/24 03:07:23;;;;;;;;;;;7.30;99.90;;;;;;5092103;27;20355;-76
2022/12/24 03:09:52;;;;;;;;;;;7.30;99.90;;;;;;5121650;27;19927;-76
2022/12/24 04:54:43;;;;;;;;;;;6.80;99.90;;;;;;5102507;27;20366;-75
2022/12/24 04:57:09;;;;;;;;;;;6.80;99.90;;;;;;5095014;27;19974;-76
2022/12/24 04:59:34;;;;;;;;;;;6.80;99.90;;;;;;5087011;27;19982;-75
2022/12/24 05:02:00;;;;;;;;;;;6.90;99.90;;;;;;5099028;27;20391;-76
2022/12/24 05:04:25;;;;;;;;;;;6.90;99.90;;;;;;5073749;27;19926;-76
2022/12/24 05:06:51;;;;;;;;;;;6.90;99.90;;;;;;5104096;28;19924;-75
2022/12/24 05:09:16;;;;;;;;;;;7.00;99.90;;;;;;5087432;28;20125;-76
2022/12/24 05:11:42;;;;;;;;;;;7.00;99.90;;;;;;5105449;28;19920;-75
2022/12/24 05:14:08;;;;;;;;;;;6.90;99.90;;;;;;5091595;28;19923;-76
2022/12/24 05:16:33;;;;;;;;;;;6.90;99.90;;;;;;5097631;28;20334;-75
2022/12/24 05:18:59;;;;;;;;;;;6.90;99.90;;;;;;5067986;28;19924;-75
2022/12/24 05:21:24;;;;;;;;;;;6.90;99.90;;;;;;5115421;27;20022;-75
2022/12/24 05:26:38;;;;;;;;;;;6.90;99.90;;;;;;5107128;28;19966;-75
2022/12/24 05:29:05;;;;;;;;;;;6.80;99.90;;;;;;5089175;28;19998;-77
2022/12/24 05:31:32;;;;;;;;;;;6.80;99.90;;;;;;5091753;27;19972;-75
2022/12/24 05:33:57;;;;;;;;;;;6.80;99.90;;;;;;5103252;27;19923;-75
2022/12/24 05:36:23;;;;;;;;;;;6.70;99.90;;;;;;5092377;27;19919;-75
2022/12/24 05:38:49;;;;;;;;;;;6.70;99.90;;;;;;5094563;27;20465;-75
2022/12/24 05:41:15;;;;;;;;;;;6.70;99.90;;;;;;5117187;27;19938;-75
2022/12/24 05:43:40;;;;;;;;;;;6.70;99.90;;;;;;5114315;27;20371;-75
2022/12/24 05:46:07;;;;;;;;;;;6.70;99.90;;;;;;5107385;27;19972;-75
2022/12/24 05:48:33;;;;;;;;;;;6.70;99.90;;;;;;5107544;27;19919;-76
2022/12/24 05:51:02;;;;;;;;;;;6.60;99.90;;;;;;5111417;27;20085;-76
2022/12/24 05:53:27;;;;;;;;;;;6.60;99.90;;;;;;5094711;27;19930;-75
2022/12/24 05:55:53;;;;;;;;;;;6.60;99.90;;;;;;5074994;28;19920;-76
2022/12/24 05:58:18;;;;;;;;;;;6.60;99.90;;;;;;5087556;27;19930;-76
2022/12/24 06:00:44;;;;;;;;;;;6.60;99.90;;;;;;5108430;27;19984;-75
2022/12/24 06:03:10;;;;;;;;;;;6.50;99.90;;;;;;5094428;27;19923;-75
2022/12/24 06:05:36;;;;;;;;;;;6.50;99.90;;;;;;5111780;27;19923;-75
2022/12/24 06:08:01;;;;;;;;;;;6.50;99.90;;;;;;5093997;27;20392;-75
2022/12/24 06:10:27;;;;;;;;;;;6.50;99.90;;;;;;5094535;27;19972;-75
2022/12/24 06:12:54;;;;;;;;;;;6.50;99.90;;;;;;5088476;27;19924;-75
2022/12/24 06:15:19;;;;;;;;;;;6.50;99.90;;;;;;5116715;27;20234;-75
2022/12/24 06:17:45;;;;;;;;;;;6.50;99.90;;;;;;5099880;27;19927;-75
2022/12/24 06:20:10;;;;;;;;;;;6.50;99.90;;;;;;5091592;28;20299;-75
2022/12/24 06:22:36;;;;;;;;;;;6.50;99.90;;;;;;5094175;27;20007;-76
2022/12/24 06:25:02;;;;;;;;;;;6.50;99.90;;;;;;5111248;27;20161;-76
2022/12/24 06:27:27;;;;;;;;;;;6.40;99.90;;;;;;5095713;27;19930;-75
2022/12/24 06:29:53;;;;;;;;;;;6.40;99.90;;;;;;5089288;28;20008;-75
2022/12/24 06:32:19;;;;;;;;;;;6.50;99.90;;;;;;5094380;27;19919;-76
2022/12/24 06:34:44;;;;;;;;;;;6.50;99.90;;;;;;5111196;27;20397;-76
2022/12/24 06:37:17;;;;;;;;;;;6.60;99.90;;;;;;5110287;27;20006;-76
2022/12/24 06:39:45;;;;;;;;;;;6.60;99.90;;;;;;5112617;27;19923;-75
2022/12/24 06:42:12;;;;;;;;;;;6.60;99.90;;;;;;5098915;27;20238;-75
2022/12/24 06:44:38;;;;;;;;;;;6.60;99.90;;;;;;5109788;27;19943;-75
2022/12/24 06:47:03;;;;;;;;;;;6.60;99.90;;;;;;5110530;27;19930;-75
2022/12/24 06:49:29;;;;;;;;;;;6.60;99.90;;;;;;5095751;27;20203;-75
2022/12/24 06:51:55;;;;;;;;;;;6.60;99.90;;;;;;5110887;27;19923;-75
2022/12/24 06:54:20;;;;;;;;;;;6.60;99.90;;;;;;5076547;27;20431;-75
2022/12/24 06:56:46;;;;;;;;;;;6.50;99.90;;;;;;5110164;27;19927;-75
2022/12/24 06:59:11;;;;;;;;;;;6.40;99.90;;;;;;5093783;27;20463;-76
2022/12/24 07:01:37;;;;;;;;;;;6.40;99.90;;;;;;5110126;27;19968;-75
2022/12/24 07:04:02;;;;;;;;;;;6.30;99.90;;;;;;5074676;27;19930;-75
2022/12/24 07:06:29;;;;;;;;;;;6.30;99.90;;;;;;5109114;27;19935;-75
2022/12/24 07:08:54;;;;;;;;;;;6.30;99.90;;;;;;5085873;28;19974;-76
2022/12/24 08:03:09;;;;;;;;;;;6.30;99.90;;;;;;5112507;27;19950;-76
2022/12/24 08:19:06;;;;;;;;;;;6.50;99.90;;;;;;5120453;27;19918;-76
2022/12/24 08:21:32;;;;;;;;;;;6.50;99.90;;;;;;5110745;27;20370;-76
2022/12/24 08:59:43;;;;;;;;;;;7.40;99.90;;;;;;5340108;22;19978;-73
2022/12/24 09:02:09;;;;;;;;;;;7.40;99.90;;;;;;5045812;28;19924;-73
2022/12/24 09:04:38;;;;;;;;;;;7.50;99.90;;;;;;5062673;28;19920;-73
2022/12/24 09:07:03;;;;;;;;;;;7.50;99.90;;;;;;5040648;28;20204;-73
2022/12/24 09:09:29;;;;;;;;;;;7.60;99.90;;;;;;5060977;28;20166;-73
2022/12/24 09:11:54;;;;;;;;;;;7.60;99.90;;;;;;5061893;28;19924;-73
2022/12/24 09:14:20;;;;;;;;;;;7.70;99.90;;;;;;5046464;28;19924;-73
2022/12/24 09:16:46;;;;;;;;;;;7.70;99.90;;;;;;5048160;28;20136;-73
2022/12/24 09:19:11;;;;;;;;;;;7.70;99.90;;;;;;5051514;28;19978;-73
2022/12/24 09:21:37;;;;;;;;;;;7.70;99.90;;;;;;5031445;28;19928;-73
2022/12/24 09:24:12;;;;;;;;;;;7.70;99.90;;;;;;5041943;28;20007;-73
2022/12/24 09:26:40;;;;;;;;;;;7.80;99.90;;;;;;5047906;28;19946;-73
2022/12/24 09:29:05;;;;;;;;;;;7.80;99.90;;;;;;5042801;28;20345;-73
2022/12/24 09:31:31;;;;;;;;;;;7.80;99.90;;;;;;5046740;28;19981;-73
2022/12/24 09:33:56;;;;;;;;;;;7.90;99.90;;;;;;5051191;28;19974;-73
2022/12/24 09:36:22;;;;;;;;;;;7.90;99.90;;;;;;5065411;28;19928;-73
2022/12/24 09:38:48;;;;;;;;;;;7.90;99.90;;;;;;5048215;28;19920;-73
2022/12/24 09:41:29;;;;;;;;;;;7.90;99.90;;;;;;5047416;28;19932;-73
2022/12/24 09:43:58;;;;;;;;;;;7.90;99.90;;;;;;5041219;28;19960;-73
2022/12/24 09:46:27;;;;;;;;;;;7.90;99.90;;;;;;5055528;28;19927;-73
2022/12/24 09:48:58;;;;;;;;;;;7.90;99.90;;;;;;5059152;28;20007;-73
2022/12/24 09:51:28;;;;;;;;;;;8.00;99.90;;;;;;5060701;28;19925;-73
2022/12/24 09:53:56;;;;;;;;;;;8.00;99.90;;;;;;5056271;28;20011;-73
2022/12/24 09:56:24;;;;;;;;;;;8.00;99.90;;;;;;5061294;28;20145;-73
2022/12/24 09:58:55;;;;;;;;;;;8.00;99.90;;;;;;5064792;28;19940;-74
2022/12/24 10:01:21;;;;;;;;;;;8.00;99.90;;;;;;5059791;28;20094;-74
2022/12/24 10:03:46;;;;;;;;;;;8.10;99.90;;;;;;5051901;28;20379;-74
2022/12/24 10:06:29;;;;;;;;;;;8.10;99.90;;;;;;5042365;28;20311;-73
2022/12/24 10:09:00;;;;;;;;;;;8.10;99.90;;;;;;5081559;28;20001;-74
2022/12/24 10:11:47;;;;;;;;;;;8.20;99.90;;;;;;5044868;28;20448;-74
2022/12/24 10:14:21;;;;;;;;;;;8.20;99.90;;;;;;5054241;28;19929;-73
2022/12/24 10:16:57;;;;;;;;;;;8.30;99.90;;;;;;5042646;28;19936;-73
2022/12/24 10:19:41;;;;;;;;;;;8.30;99.90;;;;;;5043654;28;19987;-73
2022/12/24 11:18:36;;;;;;;;;;;8.30;99.90;;;;;;5045565;28;19928;-74
2022/12/24 11:21:03;;;;;;;;;;;8.40;99.90;;;;;;5042438;28;19931;-74
2022/12/24 11:23:28;;;;;;;;;;;8.30;99.90;;;;;;5037750;28;19955;-74
2022/12/24 11:25:55;;;;;;;;;;;8.30;99.90;;;;;;5016461;28;20372;-74
2022/12/24 11:28:22;;;;;;;;;;;8.30;99.90;;;;;;5035762;28;19978;-75
2022/12/24 11:30:55;;;;;;;;;;;8.30;99.90;;;;;;5053250;28;19920;-75
2022/12/24 11:33:21;;;;;;;;;;;8.30;99.90;;;;;;5040682;28;19967;-74
2022/12/24 11:35:48;;;;;;;;;;;8.30;99.90;;;;;;5026689;28;19932;-76
2022/12/24 11:38:22;;;;;;;;;;;8.30;99.90;;;;;;5024940;28;19924;-76
2022/12/24 11:40:49;;;;;;;;;;;8.30;99.90;;;;;;5032370;28;19937;-75
2022/12/24 11:43:43;;;;;;;;;;;8.30;99.90;;;;;;5032631;28;20412;-76
2022/12/24 11:46:16;;;;;;;;;;;8.30;99.90;;;;;;5048756;28;19925;-76
2022/12/24 11:48:42;;;;;;;;;;;8.30;99.90;;;;;;5039057;28;19928;-76
2022/12/24 11:51:18;;;;;;;;;;;8.40;99.90;;;;;;5034163;28;20440;-76
2022/12/24 11:53:47;;;;;;;;;;;8.40;99.90;;;;;;5048053;28;19924;-77
2022/12/24 11:56:33;;;;;;;;;;;8.30;99.90;;;;;;5068315;28;19924;-76
2022/12/24 11:59:02;;;;;;;;;;;8.40;99.90;;;;;;5032285;28;19925;-76
2022/12/24 12:01:42;;;;;;;;;;;8.30;99.90;;;;;;5034191;28;19966;-76
2022/12/24 12:04:21;;;;;;;;;;;8.40;99.90;;;;;;5032490;28;19924;-76
2022/12/24 12:06:49;;;;;;;;;;;8.40;99.90;;;;;;5042480;28;20509;-77
2022/12/24 12:09:23;;;;;;;;;;;8.30;99.90;;;;;;5027387;28;19974;-77
2022/12/24 12:12:00;;;;;;;;;;;8.40;99.90;;;;;;5049025;28;19994;-76
2022/12/24 12:14:34;;;;;;;;;;;8.30;99.90;;;;;;5050473;28;19950;-77
2022/12/24 12:17:12;;;;;;;;;;;8.40;99.90;;;;;;5050305;28;20276;-77
2022/12/24 12:19:43;;;;;;;;;;;8.40;99.90;;;;;;5033717;28;19929;-77
2022/12/24 12:22:14;;;;;;;;;;;8.40;99.90;;;;;;5027803;28;19931;-77
2022/12/24 12:24:42;;;;;;;;;;;8.40;99.90;;;;;;5060976;28;19920;-76
2022/12/24 12:30:30;;;;;;;;;;;8.30;99.90;;;;;;5064731;28;20237;-77
2022/12/24 12:33:03;;;;;;;;;;;8.30;99.90;;;;;;5035325;28;19924;-77
2022/12/24 12:35:32;;;;;;;;;;;8.30;99.90;;;;;;5060570;28;20279;-76
2022/12/24 12:37:59;;;;;;;;;;;8.30;99.90;;;;;;5033667;28;20535;-77
2022/12/24 12:40:31;;;;;;;;;;;8.30;99.90;;;;;;5050160;28;19924;-77
2022/12/24 12:43:25;;;;;;;;;;;8.30;99.90;;;;;;5050242;28;19924;-77
2022/12/24 12:45:54;;;;;;;;;;;8.20;99.90;;;;;;5043680;28;19921;-77
2022/12/24 12:48:20;;;;;;;;;;;8.20;99.90;;;;;;5020053;28;19947;-77
2022/12/24 12:50:49;;;;;;;;;;;8.20;99.90;;;;;;5033537;28;20372;-76
2022/12/24 12:58:17;;;;;;;;;;;8.20;99.90;;;;;;4191005;26;20049;-74
2022/12/24 13:08:23;;;;;;;;;;;8.20;99.90;;;;;;5044394;28;20019;-75
2022/12/24 13:10:49;;;;;;;;;;;8.20;99.90;;;;;;5027628;28;20028;-75
2022/12/24 13:13:26;;;;;;;;;;;8.20;99.90;;;;;;5005636;28;20011;-75
2022/12/24 13:16:11;;;;;;;;;;;8.20;99.90;;;;;;5002264;28;19925;-75
2022/12/24 13:18:56;;;;;;;;;;;8.10;99.90;;;;;;5003829;28;19921;-75
2022/12/24 13:21:23;;;;;;;;;;;8.10;99.90;;;;;;5020902;28;19928;-75
2022/12/24 13:23:49;;;;;;;;;;;8.00;99.90;;;;;;5010875;28;19999;-75
2022/12/24 13:26:15;;;;;;;;;;;8.00;99.90;;;;;;5028007;28;19920;-75
2022/12/24 13:28:41;;;;;;;;;;;8.00;99.90;;;;;;5011408;28;19921;-75
2022/12/24 13:31:16;;;;;;;;;;;7.90;99.90;;;;;;5010258;28;20754;-75
2022/12/24 13:33:41;;;;;;;;;;;7.90;99.90;;;;;;5027759;28;19921;-75
2022/12/24 13:36:08;;;;;;;;;;;7.80;99.90;;;;;;5027496;28;19935;-75
2022/12/24 13:38:46;;;;;;;;;;;7.80;99.90;;;;;;5027521;28;20799;-75
2022/12/24 13:41:30;;;;;;;;;;;7.70;99.90;;;;;;5007920;28;20011;-75
2022/12/24 13:44:22;;;;;;;;;;;7.70;99.90;;;;;;5025657;28;19951;-75
2022/12/24 13:46:47;;;;;;;;;;;7.60;99.90;;;;;;5014887;28;20220;-75
2022/12/24 13:49:28;;;;;;;;;;;7.50;99.90;;;;;;5007027;28;19936;-75
2022/12/24 13:52:13;;;;;;;;;;;7.50;99.90;;;;;;5013173;28;19929;-75
2022/12/24 13:54:41;;;;;;;;;;;7.40;99.90;;;;;;5031543;28;19928;-75
2022/12/24 13:57:22;;;;;;;;;;;7.30;99.90;;;;;;5015598;28;19933;-75
2022/12/24 13:59:55;;;;;;;;;;;7.20;99.90;;;;;;5019851;28;19929;-75
2022/12/24 14:02:21;;;;;;;;;;;7.10;99.90;;;;;;5022446;28;20352;-75
2022/12/24 14:04:48;;;;;;;;;;;7.00;99.90;;;;;;5015388;28;19935;-75
2022/12/24 14:07:18;;;;;;;;;;;7.00;99.90;;;;;;5023676;28;19947;-75
2022/12/24 14:09:47;;;;;;;;;;;6.90;99.90;;;;;;5029693;28;19928;-75
2022/12/24 14:12:14;;;;;;;;;;;6.90;99.90;;;;;;5043507;28;19931;-75
2022/12/24 14:14:40;;;;;;;;;;;6.90;99.90;;;;;;5069309;28;19943;-75
2022/12/24 14:17:18;;;;;;;;;;;6.90;99.90;;;;;;5031122;28;19929;-75
2022/12/24 14:19:45;;;;;;;;;;;6.80;99.90;;;;;;5045138;28;20379;-76
2022/12/24 14:22:31;;;;;;;;;;;6.70;99.90;;;;;;5037837;28;19925;-75
2022/12/24 14:25:00;;;;;;;;;;;6.70;99.90;;;;;;5026215;28;19929;-75
2022/12/24 14:27:40;;;;;;;;;;;6.60;99.90;;;;;;5024004;28;19928;-75
2022/12/24 14:30:08;;;;;;;;;;;6.60;99.90;;;;;;5014135;28;19935;-75
2022/12/24 14:32:34;;;;;;;;;;;6.50;99.90;;;;;;5017905;28;19925;-75
2022/12/24 14:35:04;;;;;;;;;;;6.50;99.90;;;;;;5020480;28;20291;-75
2022/12/24 14:37:30;;;;;;;;;;;6.50;99.90;;;;;;5028821;28;19971;-75
2022/12/24 14:40:06;;;;;;;;;;;6.40;99.90;;;;;;5019388;28;20003;-76
2022/12/24 14:43:04;;;;;;;;;;;6.40;99.90;;;;;;5020660;28;19924;-76
2022/12/24 14:45:34;;;;;;;;;;;6.40;99.90;;;;;;5014598;28;19929;-75
2022/12/24 14:48:18;;;;;;;;;;;6.30;99.90;;;;;;5038689;28;20016;-76
2022/12/24 14:51:08;;;;;;;;;;;6.30;99.90;;;;;;5023583;28;20926;-76
2022/12/24 14:53:52;;;;;;;;;;;6.20;99.90;;;;;;5045219;28;20015;-76
2022/12/24 14:56:18;;;;;;;;;;;6.20;99.90;;;;;;5013660;28;19924;-74
2022/12/24 14:58:44;;;;;;;;;;;6.20;99.90;;;;;;5033088;28;19936;-73
2022/12/24 15:05:11;;;;;;;;;;;6.10;99.90;;;;;;5031403;28;19929;-75
2022/12/24 15:11:33;;;;;;;;;;;6.10;99.90;;;;;;5024430;28;19929;-73
2022/12/24 15:48:47;;;;;;;;;;;5.40;99.90;;;;;;4799458;23;19927;-73
2022/12/24 15:51:20;;;;;;;;;;;5.40;99.90;;;;;;4873496;29;20380;-73
2022/12/24 15:53:48;;;;;;;;;;;5.30;99.90;;;;;;4862720;29;19927;-73
2022/12/24 15:56:31;;;;;;;;;;;5.30;99.90;;;;;;4862021;29;20439;-73
2022/12/24 15:59:11;;;;;;;;;;;5.20;99.90;;;;;;4878991;29;19924;-73
2022/12/24 16:01:37;;;;;;;;;;;5.20;99.90;;;;;;4863259;29;19939;-73
2022/12/24 16:04:10;;;;;;;;;;;5.10;99.90;;;;;;4863874;29;19923;-73
2022/12/24 16:06:55;;;;;;;;;;;5.10;99.90;;;;;;4879271;29;19935;-73
2022/12/24 16:09:40;;;;;;;;;;;5.00;99.90;;;;;;4855104;29;19923;-73
2022/12/24 16:12:15;;;;;;;;;;;5.00;99.90;;;;;;4878784;29;19973;-73
2022/12/24 16:14:44;;;;;;;;;;;4.90;99.90;;;;;;4877027;29;19931;-73
2022/12/24 16:17:21;;;;;;;;;;;4.90;99.90;;;;;;4860934;29;19923;-73
2022/12/24 16:19:48;;;;;;;;;;;4.80;99.90;;;;;;4878582;29;19927;-73
2022/12/24 16:22:34;;;;;;;;;;;4.80;99.90;;;;;;4860779;29;19923;-73
2022/12/24 16:25:21;;;;;;;;;;;4.80;99.90;;;;;;4863519;29;19923;-73
2022/12/24 16:27:48;;;;;;;;;;;4.80;99.90;;;;;;4878976;29;19923;-76
2022/12/24 16:30:14;;;;;;;;;;;4.70;99.90;;;;;;4863164;29;20403;-75
2022/12/24 16:32:40;;;;;;;;;;;4.70;99.90;;;;;;4878808;29;20031;-75
2022/12/24 16:35:11;;;;;;;;;;;4.60;99.90;;;;;;4862942;29;19923;-75
2022/12/24 16:37:37;;;;;;;;;;;4.60;99.90;;;;;;4878686;29;19924;-73
2022/12/24 16:40:02;;;;;;;;;;;4.50;99.90;;;;;;4848231;29;20257;-73
2022/12/24 16:45:12;;;;;;;;;;;4.50;99.90;;;;;;4877613;29;19972;-73
2022/12/24 16:47:38;;;;;;;;;;;4.50;99.90;;;;;;4842316;29;19928;-73
2022/12/24 16:50:05;;;;;;;;;;;4.50;99.90;;;;;;4893024;29;20014;-73
2022/12/24 16:52:32;;;;;;;;;;;4.50;99.90;;;;;;4874661;29;19923;-73
2022/12/24 16:54:58;;;;;;;;;;;4.50;99.90;;;;;;4877294;29;19931;-73
2022/12/24 16:57:24;;;;;;;;;;;4.50;99.90;;;;;;4878133;29;20281;-73
2022/12/24 16:59:50;;;;;;;;;;;4.50;99.90;;;;;;4874185;29;19928;-73
2022/12/24 17:02:17;;;;;;;;;;;4.50;99.90;;;;;;4893548;29;20372;-73
2022/12/24 17:04:42;;;;;;;;;;;4.50;99.90;;;;;;4893679;29;20002;-73
2022/12/24 17:07:12;;;;;;;;;;;4.50;99.90;;;;;;4874787;29;20403;-73
2022/12/24 17:09:38;;;;;;;;;;;4.50;99.90;;;;;;4893231;29;20022;-73
2022/12/24 17:12:04;;;;;;;;;;;4.50;99.90;;;;;;4892353;29;20030;-73
2022/12/24 17:14:30;;;;;;;;;;;4.40;99.90;;;;;;4878306;29;19923;-73
2022/12/24 17:16:55;;;;;;;;;;;4.40;99.90;;;;;;4886845;29;19927;-73
2022/12/24 17:19:21;;;;;;;;;;;4.30;99.90;;;;;;4855841;29;19928;-73
2022/12/24 17:21:47;;;;;;;;;;;4.30;99.90;;;;;;4893043;29;19923;-73
2022/12/24 17:24:13;;;;;;;;;;;4.30;99.90;;;;;;4892943;29;20056;-73
2022/12/24 17:26:39;;;;;;;;;;;4.20;99.90;;;;;;4875052;29;19930;-74
2022/12/24 17:29:05;;;;;;;;;;;4.20;99.90;;;;;;4865501;29;20307;-73
2022/12/24 17:31:31;;;;;;;;;;;4.20;99.90;;;;;;4897464;29;19930;-73
2022/12/24 17:33:57;;;;;;;;;;;4.10;99.90;;;;;;4881677;29;20452;-73
2022/12/24 17:36:23;;;;;;;;;;;4.10;99.90;;;;;;4881633;29;20006;-73
2022/12/24 17:38:49;;;;;;;;;;;4.10;99.90;;;;;;4879508;29;20072;-73
2022/12/24 17:41:16;;;;;;;;;;;4.10;99.90;;;;;;4897217;29;20521;-73
2022/12/24 17:43:42;;;;;;;;;;;4.10;99.90;;;;;;4876732;29;19946;-74
2022/12/24 17:46:09;;;;;;;;;;;4.10;99.90;;;;;;4881402;29;19924;-74
2022/12/24 17:48:35;;;;;;;;;;;4.00;99.90;;;;;;4896685;29;20379;-75
2022/12/24 17:51:04;;;;;;;;;;;4.00;99.90;;;;;;4893762;29;19935;-74
2022/12/24 17:53:31;;;;;;;;;;;4.00;99.90;;;;;;4896579;29;19927;-74
2022/12/24 17:55:57;;;;;;;;;;;3.90;99.90;;;;;;4881705;29;20367;-74
2022/12/24 17:58:22;;;;;;;;;;;3.90;99.90;;;;;;4855222;29;19972;-74
2022/12/24 18:00:48;;;;;;;;;;;3.80;99.90;;;;;;4881257;29;19975;-74
2022/12/24 18:03:14;;;;;;;;;;;3.70;99.90;;;;;;4896204;29;20455;-74
2022/12/24 18:05:39;;;;;;;;;;;3.70;99.90;;;;;;4895943;29;20340;-74
2022/12/24 18:08:05;;;;;;;;;;;3.60;99.90;;;;;;4875418;29;19979;-75
2022/12/24 18:10:31;;;;;;;;;;;3.60;99.90;;;;;;4897042;29;19967;-75
2022/12/24 18:12:56;;;;;;;;;;;3.60;99.90;;;;;;4902988;29;19931;-76
2022/12/24 18:15:22;;;;;;;;;;;3.50;99.90;;;;;;4890708;29;20333;-75
2022/12/24 18:17:51;;;;;;;;;;;3.50;99.90;;;;;;4890926;29;19935;-75
2022/12/24 18:20:17;;;;;;;;;;;3.60;99.90;;;;;;4874288;29;19984;-75
2022/12/24 18:22:43;;;;;;;;;;;3.70;99.90;;;;;;4863344;29;19924;-75
2022/12/24 18:25:09;;;;;;;;;;;3.70;99.90;;;;;;4859807;29;19975;-75
2022/12/24 18:27:34;;;;;;;;;;;3.70;99.90;;;;;;4879369;29;19931;-75
2022/12/24 18:30:00;;;;;;;;;;;3.80;99.90;;;;;;4894967;29;20428;-76
2022/12/24 18:32:26;;;;;;;;;;;3.90;99.90;;;;;;4873317;29;19952;-75
2022/12/24 18:34:52;;;;;;;;;;;4.00;99.90;;;;;;4894285;29;19923;-75
2022/12/24 18:37:17;;;;;;;;;;;4.10;99.90;;;;;;4894764;29;20019;-75
2022/12/24 18:39:43;;;;;;;;;;;4.20;99.90;;;;;;4888994;29;19934;-75
2022/12/24 18:42:13;;;;;;;;;;;4.20;99.90;;;;;;4878850;29;20407;-75
2022/12/24 18:44:42;;;;;;;;;;;4.30;99.90;;;;;;4879210;29;19934;-75
2022/12/24 18:47:08;;;;;;;;;;;4.50;99.90;;;;;;4873927;29;19935;-75
2022/12/24 18:49:34;;;;;;;;;;;4.60;99.90;;;;;;4879089;29;20443;-75
2022/12/24 18:52:02;;;;;;;;;;;4.70;99.90;;;;;;4868920;29;19923;-75
2022/12/24 18:54:27;;;;;;;;;;;4.80;99.90;;;;;;4878589;29;19978;-75
2022/12/24 18:56:53;;;;;;;;;;;5.00;99.90;;;;;;4877694;29;19923;-75
2022/12/24 18:59:18;;;;;;;;;;;5.00;99.90;;;;;;4877103;29;19939;-75
2022/12/24 19:01:44;;;;;;;;;;;5.00;99.90;;;;;;4894226;29;19923;-75
2022/12/24 19:04:10;;;;;;;;;;;5.00;99.90;;;;;;4878515;29;20336;-75
2022/12/24 19:06:35;;;;;;;;;;;5.00;99.90;;;;;;4861925;29;19939;-75
2022/12/24 19:09:01;;;;;;;;;;;4.90;99.90;;;;;;4873541;29;19924;-75
2022/12/24 19:11:31;;;;;;;;;;;4.90;99.90;;;;;;4878613;29;19924;-75
2022/12/24 19:13:57;;;;;;;;;;;4.90;99.90;;;;;;4893365;29;19929;-75
2022/12/24 19:16:22;;;;;;;;;;;4.80;99.90;;;;;;4863096;29;20294;-75
2022/12/24 19:18:48;;;;;;;;;;;4.80;99.90;;;;;;4878942;29;19927;-75
2022/12/24 19:21:16;;;;;;;;;;;4.80;99.90;;;;;;4878210;29;19928;-75
2022/12/24 19:23:42;;;;;;;;;;;4.70;99.90;;;;;;4893286;29;19931;-75
2022/12/24 19:26:08;;;;;;;;;;;4.60;99.90;;;;;;4892574;29;20436;-75
2022/12/24 19:28:34;;;;;;;;;;;4.50;99.90;;;;;;4892026;29;19927;-75
2022/12/24 19:31:03;;;;;;;;;;;4.40;99.90;;;;;;4891293;29;19939;-75
2022/12/24 19:33:29;;;;;;;;;;;4.30;99.90;;;;;;4886255;29;19927;-75
2022/12/24 19:35:55;;;;;;;;;;;4.20;99.90;;;;;;4856851;29;20524;-75
2022/12/24 19:38:20;;;;;;;;;;;4.10;99.90;;;;;;4869060;29;19983;-75
2022/12/24 19:40:46;;;;;;;;;;;4.00;99.90;;;;;;4894154;29;19979;-75
2022/12/24 19:43:12;;;;;;;;;;;3.90;99.90;;;;;;4891974;29;20054;-76
2022/12/24 19:45:37;;;;;;;;;;;3.80;99.90;;;;;;4871276;29;19934;-75
2022/12/24 19:48:03;;;;;;;;;;;3.70;99.90;;;;;;4859305;29;19973;-75
2022/12/24 19:50:29;;;;;;;;;;;3.70;99.90;;;;;;4865758;29;19931;-76
2022/12/24 19:52:55;;;;;;;;;;;3.60;99.90;;;;;;4878610;29;19924;-75
2022/12/24 19:55:21;;;;;;;;;;;3.50;99.90;;;;;;4861943;29;19982;-75
2022/12/24 19:57:46;;;;;;;;;;;3.50;99.90;;;;;;4870610;29;19988;-75
2022/12/24 20:00:12;;;;;;;;;;;3.40;99.90;;;;;;4876653;29;19978;-75
2022/12/24 20:02:38;;;;;;;;;;;3.40;99.90;;;;;;4873711;29;19927;-74
2022/12/24 20:05:04;;;;;;;;;;;3.40;99.90;;;;;;4874466;29;19931;-74
2022/12/24 20:07:29;;;;;;;;;;;3.40;99.90;;;;;;4869995;29;19930;-75
2022/12/24 20:09:55;;;;;;;;;;;3.40;99.90;;;;;;4858311;29;20299;-74
2022/12/24 20:12:21;;;;;;;;;;;3.50;99.90;;;;;;4861652;29;20660;-75
2022/12/24 20:14:46;;;;;;;;;;;3.50;99.90;;;;;;4871233;29;20006;-75